Time;durP1;ratioP1;P1;durP2;ratioP2;P2;SDS_P1;SDS_P2;PMS_P1;PMS_P2;Temp;Humidity;BMP_temperature;BMP_pressure;BME280_temperature;BME280_humidity;BME280_pressure;Samples;Min_cycle;Max_cycle;Signal;HPM_P1;HPM_P2
2022/11/13 00:02:09;;;;;;;54.33;36.60;;;8.30;99.90;;;;;;4980611;28;20042;-69
2022/11/13 00:04:35;;;;;;;58.97;38.92;;;8.40;99.90;;;;;;4985094;28;20029;-70
2022/11/13 00:07:01;;;;;;;60.45;38.60;;;8.40;99.90;;;;;;4985659;28;20106;-69
2022/11/13 00:09:26;;;;;;;55.20;36.92;;;8.40;99.90;;;;;;4989261;28;20061;-69
2022/11/13 00:11:52;;;;;;;57.75;37.85;;;8.40;99.90;;;;;;4992597;28;20034;-70
2022/11/13 00:14:17;;;;;;;60.13;37.25;;;8.40;99.90;;;;;;4988059;28;20037;-69
2022/11/13 00:16:43;;;;;;;56.10;38.15;;;8.40;99.90;;;;;;4985493;28;20057;-68
2022/11/13 00:19:08;;;;;;;55.53;37.67;;;8.40;99.90;;;;;;4985283;28;20399;-70
2022/11/13 00:21:34;;;;;;;56.00;36.85;;;8.40;99.90;;;;;;4990406;28;20098;-69
2022/11/13 00:24:00;;;;;;;58.50;38.42;;;8.40;99.90;;;;;;4979523;28;20023;-69
2022/11/13 00:26:28;;;;;;;54.30;35.90;;;8.30;99.90;;;;;;4988067;28;20030;-69
2022/11/13 00:28:55;;;;;;;51.97;36.67;;;8.30;99.90;;;;;;4984589;28;20110;-70
2022/11/13 00:31:21;;;;;;;51.08;35.00;;;8.40;99.90;;;;;;4989627;28;20102;-72
2022/11/13 00:33:47;;;;;;;52.95;34.83;;;8.30;99.90;;;;;;4990670;28;20113;-69
2022/11/13 00:36:18;;;;;;;52.42;34.97;;;8.30;99.90;;;;;;4984681;28;20026;-69
2022/11/13 00:38:44;;;;;;;57.83;36.58;;;8.30;99.90;;;;;;4972228;28;20086;-69
2022/11/13 00:41:09;;;;;;;54.30;35.17;;;8.30;99.90;;;;;;4984788;28;20446;-69
2022/11/13 00:43:36;;;;;;;108.35;66.88;;;8.30;99.90;;;;;;4984650;28;20042;-70
2022/11/13 00:46:01;;;;;;;91.97;56.65;;;8.30;99.90;;;;;;4990216;28;20037;-71
2022/11/13 00:48:27;;;;;;;64.80;40.72;;;8.30;99.90;;;;;;4990299;28;20379;-71
2022/11/13 00:50:53;;;;;;;55.70;35.30;;;8.30;99.90;;;;;;4986638;28;20058;-71
2022/11/13 00:53:19;;;;;;;50.20;32.85;;;8.30;99.90;;;;;;4983831;28;20019;-70
2022/11/13 00:55:45;;;;;;;49.47;33.95;;;8.20;99.90;;;;;;4986977;28;20054;-71
2022/11/13 00:58:12;;;;;;;50.15;33.60;;;8.20;99.90;;;;;;4988980;28;20076;-68
2022/11/13 01:00:38;;;;;;;51.55;34.25;;;8.20;99.90;;;;;;4987948;28;20042;-70
2022/11/13 01:03:04;;;;;;;53.33;33.97;;;8.20;99.90;;;;;;4983151;28;20090;-70
2022/11/13 01:05:30;;;;;;;53.80;35.03;;;8.20;99.90;;;;;;4988718;28;20022;-70
2022/11/13 01:07:55;;;;;;;53.13;32.58;;;8.20;99.90;;;;;;4985367;28;20270;-69
2022/11/13 01:10:22;;;;;;;54.05;32.67;;;8.10;99.90;;;;;;4989092;28;20379;-69
2022/11/13 01:12:47;;;;;;;50.33;32.30;;;8.20;99.90;;;;;;4977293;28;20484;-71
2022/11/13 01:15:13;;;;;;;53.33;32.42;;;8.20;99.90;;;;;;4988315;28;20041;-70
2022/11/13 01:17:39;;;;;;;44.35;31.65;;;8.10;99.90;;;;;;4985879;28;20573;-70
2022/11/13 01:20:05;;;;;;;50.40;33.65;;;8.10;99.90;;;;;;4987428;28;20113;-70
2022/11/13 01:22:31;;;;;;;50.15;31.42;;;8.10;99.90;;;;;;4989292;28;20030;-70
2022/11/13 01:24:57;;;;;;;47.13;32.05;;;8.10;99.90;;;;;;4988796;28;20033;-69
2022/11/13 01:27:22;;;;;;;46.97;30.10;;;8.10;99.90;;;;;;4991092;28;20036;-71
2022/11/13 01:29:48;;;;;;;48.50;30.33;;;8.00;99.90;;;;;;4979022;28;20072;-70
2022/11/13 01:32:13;;;;;;;46.90;29.65;;;8.00;99.90;;;;;;4989587;28;20037;-70
2022/11/13 01:34:39;;;;;;;43.55;30.02;;;8.00;99.90;;;;;;4987625;28;20033;-70
2022/11/13 01:37:04;;;;;;;43.70;30.45;;;8.00;99.90;;;;;;4991750;28;20023;-70
2022/11/13 01:39:30;;;;;;;43.63;29.92;;;8.00;99.90;;;;;;4988133;28;20529;-70
2022/11/13 01:41:56;;;;;;;43.22;29.33;;;8.00;99.90;;;;;;4980531;28;20116;-70
2022/11/13 01:44:22;;;;;;;46.60;29.70;;;8.00;99.90;;;;;;4988277;28;20411;-70
2022/11/13 01:46:51;;;;;;;43.80;29.75;;;8.00;99.90;;;;;;4978198;28;20034;-71
2022/11/13 01:49:23;;;;;;;41.47;28.13;;;7.90;99.90;;;;;;4980975;28;20031;-70
2022/11/13 01:51:52;;;;;;;44.03;28.30;;;7.90;99.90;;;;;;4991002;28;20029;-70
2022/11/13 01:54:25;;;;;;;40.97;27.67;;;7.90;99.90;;;;;;4984568;28;20031;-70
2022/11/13 01:56:51;;;;;;;41.05;27.92;;;7.80;99.90;;;;;;4984861;28;20041;-70
2022/11/13 01:59:27;;;;;;;39.92;27.05;;;7.80;99.90;;;;;;4978633;28;20055;-70
2022/11/13 02:01:55;;;;;;;39.80;26.95;;;7.80;99.90;;;;;;4984756;28;20023;-71
2022/11/13 02:04:21;;;;;;;40.95;26.17;;;7.80;99.90;;;;;;4983832;28;20113;-70
2022/11/13 02:06:54;;;;;;;38.95;26.15;;;7.80;99.90;;;;;;4984726;28;20028;-70
2022/11/13 02:09:25;;;;;;;39.30;26.63;;;7.70;99.90;;;;;;4977402;28;20019;-70
2022/11/13 02:11:52;;;;;;;38.88;25.48;;;7.70;99.90;;;;;;4991225;28;20391;-70
2022/11/13 02:14:20;;;;;;;38.25;25.77;;;7.70;99.90;;;;;;4990600;28;20023;-71
2022/11/13 02:16:49;;;;;;;41.47;26.02;;;7.70;99.90;;;;;;4989912;28;20026;-69
2022/11/13 02:19:31;;;;;;;37.33;24.95;;;7.70;99.90;;;;;;4987853;28;20049;-71
2022/11/13 02:22:20;;;;;;;42.58;26.13;;;7.70;99.90;;;;;;4973923;28;20597;-71
2022/11/13 02:24:46;;;;;;;35.53;24.60;;;7.70;99.90;;;;;;4984822;28;20041;-70
2022/11/13 02:27:21;;;;;;;39.53;23.90;;;7.60;99.90;;;;;;4990552;28;20030;-71
2022/11/13 02:29:47;;;;;;;38.47;25.17;;;7.60;99.90;;;;;;4990489;28;20026;-70
2022/11/13 02:32:12;;;;;;;35.80;23.92;;;7.60;99.90;;;;;;4990644;28;20033;-70
2022/11/13 02:34:38;;;;;;;34.28;24.05;;;7.60;99.90;;;;;;4990184;28;20041;-70
2022/11/13 02:37:03;;;;;;;39.00;24.38;;;7.60;99.90;;;;;;4976631;28;20034;-70
2022/11/13 02:39:30;;;;;;;37.65;24.20;;;7.60;99.90;;;;;;4986464;28;20117;-70
2022/11/13 02:41:55;;;;;;;37.63;25.08;;;7.60;99.90;;;;;;4988539;28;20046;-70
2022/11/13 02:44:21;;;;;;;35.58;23.95;;;7.60;99.90;;;;;;4978580;28;20034;-70
2022/11/13 02:46:46;;;;;;;36.83;24.27;;;7.50;99.90;;;;;;4990058;28;20363;-70
2022/11/13 02:49:12;;;;;;;35.55;24.00;;;7.50;99.90;;;;;;4989950;28;20482;-70
2022/11/13 02:51:37;;;;;;;33.10;21.95;;;7.50;99.90;;;;;;4986030;28;20153;-70
2022/11/13 02:54:03;;;;;;;31.55;21.77;;;7.50;99.90;;;;;;4979812;28;20037;-70
2022/11/13 02:56:29;;;;;;;31.92;22.90;;;7.50;99.90;;;;;;4988826;28;20418;-69
2022/11/13 02:58:54;;;;;;;32.90;22.52;;;7.50;99.90;;;;;;4993228;28;20745;-70
2022/11/13 03:01:20;;;;;;;35.70;22.85;;;7.50;99.90;;;;;;4975750;28;20066;-70
2022/11/13 03:03:46;;;;;;;31.90;21.27;;;7.50;99.90;;;;;;4974735;28;20037;-70
2022/11/13 03:06:11;;;;;;;33.45;21.63;;;7.50;99.90;;;;;;4990539;28;20030;-70
2022/11/13 03:08:37;;;;;;;32.85;22.02;;;7.50;99.90;;;;;;4991080;28;20080;-71
2022/11/13 03:11:07;;;;;;;33.70;21.65;;;7.50;99.90;;;;;;4992046;28;20037;-70
2022/11/13 03:13:33;;;;;;;33.53;21.77;;;7.50;99.90;;;;;;4985882;28;20039;-70
2022/11/13 03:16:11;;;;;;;32.92;21.73;;;7.50;99.90;;;;;;4991015;28;20061;-70
2022/11/13 03:18:37;;;;;;;33.10;21.33;;;7.50;99.90;;;;;;4992691;28;20041;-69
2022/11/13 03:21:13;;;;;;;33.58;20.88;;;7.50;99.90;;;;;;4990066;28;20034;-70
2022/11/13 03:23:40;;;;;;;30.88;20.75;;;7.50;99.90;;;;;;4981127;28;20089;-70
2022/11/13 03:26:09;;;;;;;32.17;21.10;;;7.50;99.90;;;;;;4979959;28;20432;-70
2022/11/13 03:28:35;;;;;;;34.20;20.98;;;7.60;99.90;;;;;;4993848;28;20018;-70
2022/11/13 03:31:02;;;;;;;31.35;20.92;;;7.60;99.90;;;;;;4985946;28;20022;-70
2022/11/13 03:33:27;;;;;;;30.85;20.15;;;7.60;99.90;;;;;;4976627;28;20485;-71
2022/11/13 03:35:53;;;;;;;30.75;20.20;;;7.60;99.90;;;;;;4992841;28;20026;-70
2022/11/13 03:38:19;;;;;;;30.83;20.50;;;7.60;99.90;;;;;;4989516;28;20036;-70
2022/11/13 03:40:44;;;;;;;35.35;20.70;;;7.60;99.90;;;;;;4989176;28;20031;-70
2022/11/13 03:43:10;;;;;;;32.47;21.30;;;7.70;99.90;;;;;;4977040;28;20130;-70
2022/11/13 03:45:35;;;;;;;32.72;20.95;;;7.70;99.90;;;;;;4993223;28;20030;-71
2022/11/13 03:48:01;;;;;;;29.98;20.35;;;7.70;99.90;;;;;;4979904;28;20035;-70
2022/11/13 03:50:27;;;;;;;31.67;20.88;;;7.70;99.90;;;;;;4974298;28;20031;-70
2022/11/13 03:52:52;;;;;;;28.70;19.45;;;7.70;99.90;;;;;;4992054;28;20026;-70
2022/11/13 03:55:18;;;;;;;26.17;17.98;;;7.70;99.90;;;;;;4986282;28;20050;-70
2022/11/13 03:57:45;;;;;;;29.35;19.38;;;7.70;99.90;;;;;;4993357;28;20030;-70
2022/11/13 04:00:11;;;;;;;31.48;19.33;;;7.80;99.90;;;;;;4990230;28;20117;-71
2022/11/13 04:02:37;;;;;;;27.83;18.13;;;7.80;99.90;;;;;;4991204;28;20031;-70
2022/11/13 04:05:03;;;;;;;25.35;17.92;;;7.70;99.90;;;;;;4983032;28;20026;-70
2022/11/13 04:07:28;;;;;;;29.90;18.73;;;7.70;99.90;;;;;;4992534;28;20018;-70
2022/11/13 04:09:54;;;;;;;29.30;17.67;;;7.70;99.90;;;;;;4992376;28;20401;-70
2022/11/13 04:12:19;;;;;;;30.38;17.27;;;7.70;99.90;;;;;;4992437;28;20022;-69
2022/11/13 04:14:45;;;;;;;25.08;17.27;;;7.70;99.90;;;;;;4992853;28;20107;-69
2022/11/13 04:17:11;;;;;;;29.58;17.13;;;7.70;99.90;;;;;;4991629;28;20030;-70
2022/11/13 04:19:36;;;;;;;25.83;17.33;;;7.70;99.90;;;;;;4993025;28;20053;-71
2022/11/13 04:22:02;;;;;;;26.35;17.88;;;7.70;99.90;;;;;;4979686;28;20023;-70
2022/11/13 04:24:27;;;;;;;26.00;16.00;;;7.70;99.90;;;;;;4977368;28;20022;-69
2022/11/13 04:26:53;;;;;;;24.05;16.65;;;7.70;99.90;;;;;;4992437;28;20030;-70
2022/11/13 04:29:19;;;;;;;26.38;16.85;;;7.60;99.90;;;;;;4978599;28;20062;-70
2022/11/13 04:31:44;;;;;;;24.52;16.40;;;7.60;99.90;;;;;;4983683;28;20391;-70
2022/11/13 04:34:10;;;;;;;24.08;15.50;;;7.60;99.90;;;;;;4987098;28;20061;-71
2022/11/13 04:36:36;;;;;;;24.70;16.63;;;7.50;99.90;;;;;;4974177;28;20027;-71
2022/11/13 04:39:01;;;;;;;23.73;15.65;;;7.50;99.90;;;;;;4980168;28;20507;-70
2022/11/13 04:44:31;;;;;;;28.85;15.82;;;7.50;99.90;;;;;;4949714;28;20034;-70
2022/11/13 04:46:56;;;;;;;27.20;16.05;;;7.40;99.90;;;;;;4950865;28;20028;-70
2022/11/13 04:49:22;;;;;;;26.13;15.38;;;7.40;99.90;;;;;;4951249;29;20039;-70
2022/11/13 04:51:47;;;;;;;29.58;16.48;;;7.40;99.90;;;;;;4949650;28;20031;-70
2022/11/13 04:54:13;;;;;;;24.10;15.48;;;7.40;99.90;;;;;;4950606;29;20071;-69
2022/11/13 04:56:39;;;;;;;26.38;16.90;;;7.40;99.90;;;;;;4950003;28;20154;-69
2022/11/13 04:59:04;;;;;;;24.10;16.30;;;7.40;99.90;;;;;;4950221;28;20031;-70
2022/11/13 05:01:30;;;;;;;24.80;16.48;;;7.40;99.90;;;;;;4949855;28;20043;-70
2022/11/13 05:03:55;;;;;;;24.52;15.77;;;7.40;99.90;;;;;;4947588;29;20028;-69
2022/11/13 05:06:21;;;;;;;24.73;16.35;;;7.40;99.90;;;;;;4942954;28;20550;-70
2022/11/13 05:08:47;;;;;;;22.90;15.48;;;7.40;99.90;;;;;;4958321;28;20039;-70
2022/11/13 05:11:12;;;;;;;23.60;16.00;;;7.40;99.90;;;;;;4951325;28;20424;-70
2022/11/13 05:13:38;;;;;;;24.30;15.85;;;7.40;99.90;;;;;;4933845;28;20433;-70
2022/11/13 05:16:07;;;;;;;27.15;15.90;;;7.40;99.90;;;;;;4976210;28;20034;-70
2022/11/13 05:18:34;;;;;;;26.55;16.13;;;7.40;99.90;;;;;;4989024;28;20367;-71
2022/11/13 05:21:00;;;;;;;25.02;15.48;;;7.40;99.90;;;;;;4974359;28;20026;-71
2022/11/13 05:23:26;;;;;;;22.05;15.18;;;7.40;99.90;;;;;;4991705;28;20036;-71
2022/11/13 05:25:52;;;;;;;23.67;15.40;;;7.40;99.90;;;;;;4987453;28;20479;-70
2022/11/13 05:28:17;;;;;;;26.23;15.10;;;7.30;99.90;;;;;;5006569;28;20029;-70
2022/11/13 05:30:43;;;;;;;24.52;15.88;;;7.30;99.90;;;;;;4986152;28;20031;-70
2022/11/13 05:33:08;;;;;;;24.85;15.50;;;7.30;99.90;;;;;;4977136;28;20030;-71
2022/11/13 05:35:34;;;;;;;23.17;15.02;;;7.30;99.90;;;;;;4984314;28;20034;-70
2022/11/13 05:38:01;;;;;;;23.25;14.98;;;7.30;99.90;;;;;;4985659;28;20030;-70
2022/11/13 05:40:28;;;;;;;26.00;14.65;;;7.30;99.90;;;;;;4981257;28;20042;-70
2022/11/13 05:42:54;;;;;;;25.75;15.35;;;7.30;99.90;;;;;;4986640;28;20061;-70
2022/11/13 05:45:20;;;;;;;24.75;14.40;;;7.30;99.90;;;;;;4985797;28;20026;-69
2022/11/13 05:47:45;;;;;;;22.70;14.98;;;7.20;99.90;;;;;;4985324;28;20034;-70
2022/11/13 05:50:11;;;;;;;22.63;15.27;;;7.20;99.90;;;;;;4979500;28;20093;-70
2022/11/13 05:52:37;;;;;;;22.20;14.95;;;7.20;99.90;;;;;;4989772;28;20053;-71
2022/11/13 05:55:03;;;;;;;24.23;15.32;;;7.20;99.90;;;;;;4985826;28;20022;-69
2022/11/13 05:57:29;;;;;;;24.42;14.52;;;7.10;99.90;;;;;;4990660;28;20113;-69
2022/11/13 05:59:55;;;;;;;19.92;14.25;;;7.10;99.90;;;;;;4985023;28;20125;-71
2022/11/13 06:02:20;;;;;;;22.23;14.27;;;7.10;99.90;;;;;;4984535;28;20027;-70
2022/11/13 06:04:47;;;;;;;20.83;13.85;;;7.00;99.90;;;;;;4983552;28;20034;-70
2022/11/13 06:07:13;;;;;;;21.92;14.40;;;7.00;99.90;;;;;;4986213;28;20403;-70
2022/11/13 06:09:39;;;;;;;21.10;13.95;;;7.00;99.90;;;;;;4987701;28;20026;-70
2022/11/13 06:12:04;;;;;;;22.25;14.43;;;7.00;99.90;;;;;;4974724;28;20101;-69
2022/11/13 06:14:30;;;;;;;21.05;13.80;;;6.90;99.90;;;;;;4971839;28;20122;-70
2022/11/13 06:16:55;;;;;;;23.60;14.13;;;6.90;99.90;;;;;;4982152;28;20031;-70
2022/11/13 06:19:21;;;;;;;21.73;14.07;;;6.90;99.90;;;;;;4988829;28;20018;-69
2022/11/13 06:21:47;;;;;;;20.95;13.57;;;6.90;99.90;;;;;;4990909;28;20486;-69
2022/11/13 06:24:12;;;;;;;23.27;13.48;;;6.80;99.90;;;;;;4989914;28;20025;-70
2022/11/13 06:26:38;;;;;;;22.63;13.98;;;6.80;99.90;;;;;;4982758;28;20554;-70
2022/11/13 06:29:05;;;;;;;20.55;13.63;;;6.70;99.90;;;;;;4984873;28;20403;-70
2022/11/13 06:31:33;;;;;;;21.85;13.35;;;6.70;99.90;;;;;;4985334;28;20018;-70
2022/11/13 06:33:59;;;;;;;24.60;14.20;;;6.70;99.90;;;;;;4980980;28;20534;-70
2022/11/13 06:36:28;;;;;;;21.38;14.02;;;6.70;99.90;;;;;;4975891;28;20023;-70
2022/11/13 06:38:54;;;;;;;22.15;14.40;;;6.70;99.90;;;;;;4982178;28;20038;-70
2022/11/13 06:41:23;;;;;;;20.15;13.95;;;6.70;99.90;;;;;;4973838;28;20037;-71
2022/11/13 06:43:49;;;;;;;21.23;13.40;;;6.60;99.90;;;;;;4976366;28;20042;-70
2022/11/13 06:46:18;;;;;;;23.17;14.85;;;6.60;99.90;;;;;;4975473;28;20027;-71
2022/11/13 06:48:43;;;;;;;23.67;15.82;;;6.60;99.90;;;;;;4988559;28;20061;-70
2022/11/13 06:51:19;;;;;;;23.40;15.07;;;6.70;99.90;;;;;;4981635;28;20031;-71
2022/11/13 06:53:46;;;;;;;23.02;14.98;;;6.70;99.90;;;;;;4982914;28;20045;-71
2022/11/13 06:56:12;;;;;;;22.20;15.43;;;6.70;99.90;;;;;;4984137;28;20406;-70
2022/11/13 06:58:38;;;;;;;25.33;16.17;;;6.70;99.90;;;;;;4973913;28;20419;-70
2022/11/13 07:01:06;;;;;;;24.65;16.02;;;6.70;99.90;;;;;;4981217;28;20042;-71
2022/11/13 07:03:32;;;;;;;23.95;15.38;;;6.80;99.90;;;;;;4988837;28;20030;-71
2022/11/13 07:06:04;;;;;;;24.25;15.52;;;6.80;99.90;;;;;;4981117;28;20037;-70
2022/11/13 07:08:30;;;;;;;24.05;15.52;;;6.80;99.90;;;;;;4979005;28;20035;-70
2022/11/13 07:10:56;;;;;;;23.80;15.02;;;6.80;99.90;;;;;;4977378;28;20030;-70
2022/11/13 07:13:23;;;;;;;23.45;15.20;;;6.90;99.90;;;;;;4983821;28;20080;-73
2022/11/13 07:15:48;;;;;;;23.95;15.00;;;6.90;99.90;;;;;;4987085;28;20403;-72
2022/11/13 07:18:14;;;;;;;26.48;15.27;;;6.90;99.90;;;;;;4987084;28;20064;-70
2022/11/13 07:20:40;;;;;;;25.30;15.82;;;6.90;99.90;;;;;;4986085;28;20402;-70
2022/11/13 07:23:05;;;;;;;20.92;14.95;;;7.00;99.90;;;;;;4985762;28;20085;-71
2022/11/13 07:25:31;;;;;;;24.35;16.05;;;7.00;99.90;;;;;;4986697;28;20315;-72
2022/11/13 07:27:57;;;;;;;22.67;15.45;;;7.00;99.90;;;;;;4986601;28;20102;-70
2022/11/13 07:30:23;;;;;;;23.33;14.63;;;7.00;99.90;;;;;;4986116;28;20441;-72
2022/11/13 07:32:49;;;;;;;23.00;15.13;;;7.00;99.90;;;;;;4986134;28;20034;-69
2022/11/13 07:35:15;;;;;;;24.80;15.18;;;7.00;99.90;;;;;;4986223;28;20084;-70
2022/11/13 07:37:42;;;;;;;24.67;15.13;;;7.00;99.90;;;;;;4986404;28;20054;-69
2022/11/13 07:40:08;;;;;;;21.88;14.18;;;7.00;99.90;;;;;;4982964;28;20088;-70
2022/11/13 07:42:34;;;;;;;21.88;15.48;;;7.10;99.90;;;;;;4986141;28;20399;-71
2022/11/13 07:44:59;;;;;;;23.17;15.13;;;7.10;99.90;;;;;;4986810;28;20030;-70
2022/11/13 07:47:25;;;;;;;24.38;15.07;;;7.10;99.90;;;;;;4992340;28;20034;-69
2022/11/13 07:49:51;;;;;;;21.20;14.60;;;7.10;99.90;;;;;;4989213;28;20038;-68
2022/11/13 07:52:17;;;;;;;24.20;15.73;;;7.20;99.90;;;;;;4990594;28;20033;-71
2022/11/13 07:54:42;;;;;;;23.85;16.33;;;7.20;99.90;;;;;;4990200;28;20033;-70
2022/11/13 07:57:08;;;;;;;23.27;15.13;;;7.20;99.90;;;;;;4990647;28;20113;-70
2022/11/13 07:59:34;;;;;;;20.83;15.30;;;7.30;99.90;;;;;;4988476;28;20030;-70
2022/11/13 08:02:00;;;;;;;21.75;14.95;;;7.30;99.90;;;;;;4985502;28;20480;-71
2022/11/13 08:04:25;;;;;;;25.73;16.08;;;7.40;99.90;;;;;;4990424;28;20041;-70
2022/11/13 08:06:51;;;;;;;24.77;14.75;;;7.40;99.90;;;;;;4988629;28;20026;-74
2022/11/13 08:09:17;;;;;;;22.90;15.25;;;7.40;99.90;;;;;;4986268;28;20130;-73
2022/11/13 08:11:42;;;;;;;20.80;14.50;;;7.40;99.90;;;;;;4991215;28;20390;-73
2022/11/13 08:14:09;;;;;;;23.92;15.63;;;7.50;99.90;;;;;;4989341;28;20109;-72
2022/11/13 08:16:35;;;;;;;19.73;14.85;;;7.50;99.90;;;;;;4988889;28;20031;-72
2022/11/13 08:19:01;;;;;;;22.08;15.05;;;7.50;99.90;;;;;;4990262;28;20092;-73
2022/11/13 08:21:26;;;;;;;22.10;15.25;;;7.60;99.90;;;;;;4991764;28;20513;-73
2022/11/13 08:23:52;;;;;;;25.17;15.18;;;7.60;99.90;;;;;;4991384;28;20027;-73
2022/11/13 08:26:17;;;;;;;22.17;14.55;;;7.70;99.90;;;;;;4990037;28;20015;-72
2022/11/13 08:28:43;;;;;;;21.50;14.40;;;7.70;99.90;;;;;;4990018;28;20156;-73
2022/11/13 08:31:11;;;;;;;21.20;14.40;;;7.80;99.90;;;;;;4987919;28;20022;-74
2022/11/13 08:33:38;;;;;;;22.70;14.55;;;7.80;99.90;;;;;;4990502;28;20030;-73
2022/11/13 08:36:04;;;;;;;22.50;14.32;;;7.90;99.90;;;;;;4989548;28;20036;-73
2022/11/13 08:38:29;;;;;;;24.67;14.68;;;8.00;99.90;;;;;;4991028;28;20541;-71
2022/11/13 08:40:59;;;;;;;19.60;13.75;;;8.00;99.90;;;;;;4985242;28;20044;-72
2022/11/13 08:43:26;;;;;;;21.17;14.45;;;8.10;99.90;;;;;;4987074;28;20117;-71
2022/11/13 08:45:51;;;;;;;19.33;13.52;;;8.20;99.90;;;;;;4987947;28;20491;-72
2022/11/13 08:48:17;;;;;;;24.00;14.07;;;8.30;99.90;;;;;;4988668;28;20027;-72
2022/11/13 08:50:43;;;;;;;20.73;13.02;;;8.30;99.90;;;;;;4988470;28;20093;-72
2022/11/13 08:53:08;;;;;;;21.67;12.15;;;8.40;99.90;;;;;;4990048;28;20028;-72
2022/11/13 08:55:34;;;;;;;20.02;13.10;;;8.50;99.90;;;;;;4988587;28;20093;-70
2022/11/13 08:58:01;;;;;;;20.05;13.07;;;8.60;99.90;;;;;;4988380;28;20031;-72
2022/11/13 09:00:31;;;;;;;17.00;12.52;;;8.70;99.90;;;;;;4986649;28;20037;-72
2022/11/13 09:02:58;;;;;;;23.63;13.48;;;8.70;99.90;;;;;;4988560;28;20109;-71
2022/11/13 09:05:24;;;;;;;20.45;13.10;;;8.80;99.90;;;;;;4988905;28;20085;-71
2022/11/13 09:07:50;;;;;;;20.15;12.73;;;8.90;99.90;;;;;;4990114;28;20109;-72
2022/11/13 09:10:17;;;;;;;19.40;12.60;;;8.90;99.90;;;;;;4984144;28;20414;-71
2022/11/13 09:12:42;;;;;;;18.63;12.70;;;9.00;99.90;;;;;;4988273;28;20033;-72
2022/11/13 09:15:09;;;;;;;21.42;12.18;;;9.10;99.90;;;;;;4983987;28;20097;-71
2022/11/13 09:17:34;;;;;;;19.63;12.23;;;9.10;99.90;;;;;;4986138;28;20042;-72
2022/11/13 09:20:00;;;;;;;17.55;12.38;;;9.20;99.90;;;;;;4986688;28;20090;-71
2022/11/13 09:22:25;;;;;;;17.55;11.98;;;9.30;99.90;;;;;;4986677;28;20101;-71
2022/11/13 09:24:51;;;;;;;15.95;12.23;;;9.30;99.90;;;;;;4986935;28;20077;-70
2022/11/13 09:27:17;;;;;;;18.23;12.25;;;9.40;99.90;;;;;;4989443;28;20022;-71
2022/11/13 09:29:42;;;;;;;19.55;12.40;;;9.40;99.90;;;;;;4987186;28;20088;-71
2022/11/13 09:32:08;;;;;;;15.35;12.35;;;9.60;99.90;;;;;;4987776;28;20026;-71
2022/11/13 09:34:33;;;;;;;16.45;11.75;;;9.60;99.90;;;;;;4988915;28;20109;-71
2022/11/13 09:36:59;;;;;;;17.60;11.90;;;9.70;99.90;;;;;;4990361;28;20077;-71
2022/11/13 09:39:25;;;;;;;16.95;12.35;;;9.80;99.90;;;;;;4987746;28;20042;-71
2022/11/13 09:41:59;;;;;;;16.30;11.55;;;9.70;99.90;;;;;;4987746;28;20057;-71
2022/11/13 09:44:50;;;;;;;18.23;12.17;;;9.80;99.90;;;;;;4986042;28;20041;-73
2022/11/13 09:47:23;;;;;;;16.13;11.55;;;9.90;99.90;;;;;;4987569;28;20334;-71
2022/11/13 09:49:55;;;;;;;17.33;11.60;;;10.00;99.90;;;;;;4989217;28;20636;-70
2022/11/13 09:52:32;;;;;;;16.50;11.73;;;10.00;99.90;;;;;;4984172;28;20089;-70
2022/11/13 09:54:58;;;;;;;17.67;12.00;;;10.00;99.90;;;;;;4988361;28;20121;-71
2022/11/13 09:58:05;;;;;;;18.92;12.23;;;10.10;99.90;;;;;;4990920;28;20033;-70
2022/11/13 10:00:33;;;;;;;18.02;11.60;;;10.10;99.90;;;;;;4935111;29;20362;-71
2022/11/13 10:03:17;;;;;;;18.73;11.95;;;10.20;99.90;;;;;;4926260;29;20035;-71
2022/11/13 10:05:48;;;;;;;16.42;11.88;;;10.30;99.90;;;;;;4924062;29;20039;-72
2022/11/13 10:08:43;;;;;;;16.33;10.73;;;10.40;99.90;;;;;;4939569;28;20058;-71
2022/11/13 10:11:31;;;;;;;17.60;11.50;;;10.50;99.90;;;;;;4933850;29;20485;-70
2022/11/13 10:14:00;;;;;;;14.88;11.23;;;10.60;99.90;;;;;;4931857;29;20027;-71
2022/11/13 10:16:49;;;;;;;16.05;10.82;;;10.70;99.90;;;;;;4922693;29;20434;-71
2022/11/13 10:19:23;;;;;;;17.38;11.00;;;10.70;99.90;;;;;;4922228;29;20043;-71
2022/11/13 10:22:14;;;;;;;14.77;11.00;;;10.80;99.90;;;;;;4924513;29;20035;-71
2022/11/13 10:24:42;;;;;;;16.10;10.55;;;10.90;99.90;;;;;;4935896;29;20098;-71
2022/11/13 10:27:10;;;;;;;17.98;11.75;;;11.00;99.90;;;;;;4935334;29;20039;-73
2022/11/13 10:29:36;;;;;;;14.85;10.32;;;11.00;99.90;;;;;;4935423;29;20055;-71
2022/11/13 10:32:15;;;;;;;13.93;10.90;;;11.10;99.90;;;;;;4942690;29;20083;-71
2022/11/13 10:34:45;;;;;;;16.45;10.38;;;11.20;99.90;;;;;;4933953;29;20031;-72
2022/11/13 10:37:54;;;;;;;14.10;9.95;;;11.30;99.90;;;;;;4968504;28;20056;-70
2022/11/13 10:40:31;;;;;;;15.40;10.68;;;11.30;99.90;;;;;;4989354;28;20404;-71
2022/11/13 10:43:13;;;;;;;13.45;10.02;;;11.40;99.90;;;;;;4986625;28;20096;-70
2022/11/13 10:45:40;;;;;;;14.40;9.80;;;11.40;99.90;;;;;;4977614;28;20034;-72
2022/11/13 10:48:18;;;;;;;14.23;10.15;;;11.40;99.90;;;;;;4985934;28;20049;-71
2022/11/13 10:50:52;;;;;;;13.57;9.85;;;11.60;99.90;;;;;;4986984;28;20556;-72
2022/11/13 10:53:19;;;;;;;13.35;9.98;;;11.60;99.90;;;;;;4986886;28;20031;-72
2022/11/13 10:55:49;;;;;;;14.13;10.10;;;11.70;99.90;;;;;;4986922;28;20403;-73
2022/11/13 10:58:18;;;;;;;16.67;10.13;;;11.80;99.90;;;;;;4985929;28;20026;-72
2022/11/13 11:00:48;;;;;;;13.82;9.98;;;11.90;99.90;;;;;;4987853;28;20065;-72
2022/11/13 11:03:22;;;;;;;15.55;10.70;;;11.90;99.90;;;;;;4986522;28;20022;-71
2022/11/13 11:05:59;;;;;;;13.52;9.45;;;12.00;99.90;;;;;;4983651;28;20151;-71
2022/11/13 11:08:32;;;;;;;15.18;10.23;;;12.10;99.90;;;;;;4979120;28;20303;-72
2022/11/13 11:14:22;;;;;;;13.43;10.07;;;12.10;99.90;;;;;;4985361;28;20060;-71
2022/11/13 11:16:50;;;;;;;13.85;9.93;;;12.20;99.90;;;;;;4987005;28;20026;-71
2022/11/13 11:19:18;;;;;;;13.35;9.75;;;12.30;99.90;;;;;;4988262;28;20034;-72
2022/11/13 11:21:47;;;;;;;12.48;9.70;;;12.30;99.90;;;;;;4982736;28;20077;-72
2022/11/13 11:24:25;;;;;;;14.68;10.00;;;12.30;99.90;;;;;;4987559;28;20072;-71
2022/11/13 11:27:12;;;;;;;12.80;10.25;;;12.40;99.90;;;;;;4990734;28;20026;-71
2022/11/13 11:30:07;;;;;;;14.50;10.65;;;12.40;99.90;;;;;;4989422;28;20085;-72
2022/11/13 11:32:59;;;;;;;13.97;10.40;;;12.50;99.90;;;;;;4985567;28;20084;-72
2022/11/13 11:35:47;;;;;;;13.98;10.48;;;12.60;99.90;;;;;;4987885;28;20268;-71
2022/11/13 11:38:28;;;;;;;15.65;10.43;;;12.60;99.90;;;;;;4983934;28;20546;-72
2022/11/13 11:41:16;;;;;;;13.88;10.55;;;12.70;99.90;;;;;;4990211;28;20030;-72
2022/11/13 11:43:46;;;;;;;14.23;10.35;;;12.70;99.90;;;;;;4983474;28;20054;-71
2022/11/13 11:46:13;;;;;;;15.10;10.55;;;12.80;99.90;;;;;;4990542;28;20037;-72
2022/11/13 11:48:39;;;;;;;15.02;10.55;;;12.80;99.90;;;;;;4992457;28;20052;-73
2022/11/13 11:51:15;;;;;;;14.60;10.93;;;12.80;99.90;;;;;;4990196;28;20145;-73
2022/11/13 11:54:14;;;;;;;15.48;10.52;;;12.90;99.90;;;;;;4991965;28;20040;-73
2022/11/13 11:56:49;;;;;;;14.90;11.05;;;12.90;99.90;;;;;;4990276;28;20066;-74
2022/11/13 11:59:43;;;;;;;14.48;10.75;;;13.00;99.90;;;;;;4991433;28;20053;-75
2022/11/13 12:02:49;;;;;;;15.63;11.18;;;13.10;99.90;;;;;;4986874;28;20026;-75
2022/11/13 12:05:26;;;;;;;14.23;10.35;;;13.20;99.90;;;;;;4961884;28;20045;-74
2022/11/13 12:08:19;;;;;;;15.38;10.77;;;13.20;99.90;;;;;;4988354;28;20105;-74
2022/11/13 12:10:50;;;;;;;14.50;10.80;;;13.30;99.90;;;;;;4988808;28;20148;-75
2022/11/13 12:13:50;;;;;;;14.60;10.98;;;13.30;99.90;;;;;;4985699;28;20114;-75
2022/11/13 12:16:40;;;;;;;15.82;11.40;;;13.20;99.90;;;;;;4983353;28;20411;-72
2022/11/13 12:19:24;;;;;;;15.00;11.48;;;13.20;99.90;;;;;;4989918;28;20429;-73
2022/11/13 12:22:06;;;;;;;15.45;10.77;;;13.10;99.90;;;;;;4988003;28;20069;-72
2022/11/13 12:24:49;;;;;;;15.30;10.93;;;13.10;99.90;;;;;;4989908;28;20058;-72
2022/11/13 12:27:31;;;;;;;13.63;10.55;;;13.20;99.90;;;;;;4987863;28;20097;-73
2022/11/13 12:29:59;;;;;;;15.70;10.65;;;13.20;99.90;;;;;;4989472;28;20099;-72
2022/11/13 12:32:45;;;;;;;16.25;11.05;;;13.30;99.90;;;;;;4980439;28;20104;-72
2022/11/13 12:35:22;;;;;;;14.15;10.88;;;13.40;99.90;;;;;;4989437;28;20101;-72
2022/11/13 12:37:58;;;;;;;15.10;10.00;;;13.40;99.90;;;;;;4988539;28;20073;-72
2022/11/13 12:40:31;;;;;;;16.00;10.43;;;13.50;99.90;;;;;;4982649;28;20034;-72
2022/11/13 12:43:10;;;;;;;14.70;11.10;;;13.60;99.90;;;;;;4990102;28;20051;-72
2022/11/13 12:45:36;;;;;;;13.30;10.90;;;13.70;99.90;;;;;;4987413;28;20125;-72
2022/11/13 12:48:32;;;;;;;15.43;10.45;;;13.70;99.90;;;;;;4999467;28;20535;-72
2022/11/13 12:51:06;;;;;;;13.32;10.18;;;13.80;99.90;;;;;;4980402;28;20049;-72
2022/11/13 12:53:50;;;;;;;16.00;11.25;;;13.80;99.90;;;;;;4985580;28;20073;-71